Time;durP1;ratioP1;P1;durP2;ratioP2;P2;SDS_P1;SDS_P2;PMS_P1;PMS_P2;Temp;Humidity;BMP_temperature;BMP_pressure;BME280_temperature;BME280_humidity;BME280_pressure;Samples;Min_cycle;Max_cycle;Signal;HPM_P1;HPM_P2
2020/12/03 00:00:42;;;;;;;63.55;32.85;;;11.00;69.80;;;;;;5086471;28;20031;-67
2020/12/03 00:03:23;;;;;;;63.65;31.40;;;11.10;69.70;;;;;;5063342;28;20059;-68
2020/12/03 00:05:59;;;;;;;64.57;31.80;;;11.10;69.50;;;;;;5038529;28;20028;-67
2020/12/03 00:08:27;;;;;;;65.50;32.13;;;11.20;69.30;;;;;;5035036;28;20024;-68
2020/12/03 00:10:53;;;;;;;65.32;32.60;;;11.20;69.30;;;;;;5051960;28;20032;-65
2020/12/03 00:13:23;;;;;;;64.47;33.53;;;11.10;69.50;;;;;;5052848;28;20401;-66
2020/12/03 00:15:53;;;;;;;66.28;33.72;;;11.10;69.60;;;;;;5052293;28;20021;-67
2020/12/03 00:18:19;;;;;;;61.97;32.50;;;11.00;69.70;;;;;;5041485;28;20119;-70
2020/12/03 00:20:45;;;;;;;63.97;32.75;;;11.00;70.00;;;;;;5032934;28;20036;-66
2020/12/03 00:23:11;;;;;;;65.93;33.03;;;10.90;70.10;;;;;;5050232;28;20390;-67
2020/12/03 00:25:37;;;;;;;69.30;34.08;;;11.00;70.00;;;;;;5032351;28;20120;-66
2020/12/03 00:28:02;;;;;;;70.15;34.72;;;10.90;70.00;;;;;;5015882;28;20032;-67
2020/12/03 00:30:28;;;;;;;63.53;33.78;;;11.00;69.90;;;;;;5034309;28;20033;-67
2020/12/03 00:32:55;;;;;;;72.13;35.15;;;11.00;69.90;;;;;;5017389;28;20036;-67
2020/12/03 00:35:23;;;;;;;72.78;36.45;;;11.00;70.00;;;;;;5049455;28;20099;-66
2020/12/03 00:37:49;;;;;;;77.68;36.25;;;11.00;69.90;;;;;;5050190;28;20454;-66
2020/12/03 00:40:16;;;;;;;72.45;36.83;;;11.10;69.60;;;;;;5034532;28;20037;-68
2020/12/03 00:42:41;;;;;;;76.90;39.30;;;11.10;69.50;;;;;;5032639;28;20033;-67
2020/12/03 00:45:09;;;;;;;73.47;36.90;;;11.10;69.60;;;;;;5042684;28;20037;-67
2020/12/03 00:47:37;;;;;;;75.18;37.00;;;11.00;69.70;;;;;;5051990;28;20033;-67
2020/12/03 00:50:04;;;;;;;74.15;38.50;;;11.00;69.80;;;;;;5060093;28;20064;-67
2020/12/03 00:52:30;;;;;;;77.72;37.90;;;11.00;69.90;;;;;;5016313;28;20384;-68
2020/12/03 00:54:55;;;;;;;73.95;36.42;;;11.00;70.00;;;;;;5043367;28;20120;-66
2020/12/03 00:57:21;;;;;;;82.57;38.30;;;10.90;70.00;;;;;;5032506;28;20029;-66
2020/12/03 00:59:47;;;;;;;79.93;37.85;;;10.90;70.10;;;;;;5017085;28;20409;-66
2020/12/03 01:02:14;;;;;;;72.78;38.25;;;10.80;70.30;;;;;;5048173;28;20124;-67
2020/12/03 01:04:40;;;;;;;77.25;39.13;;;10.80;70.40;;;;;;5063575;28;20441;-66
2020/12/03 01:07:07;;;;;;;81.35;39.10;;;10.90;70.40;;;;;;5054291;28;20021;-67
2020/12/03 01:09:35;;;;;;;80.15;37.28;;;10.90;70.30;;;;;;5054520;28;20477;-68
2020/12/03 01:12:00;;;;;;;74.90;36.92;;;10.90;70.10;;;;;;5045043;28;20068;-68
2020/12/03 01:14:26;;;;;;;73.93;37.53;;;11.00;70.00;;;;;;5050574;28;20413;-67
2020/12/03 01:16:52;;;;;;;77.85;37.47;;;11.00;70.00;;;;;;5053664;28;20378;-67
2020/12/03 01:19:17;;;;;;;83.60;39.05;;;11.00;70.00;;;;;;5054042;28;20032;-67
2020/12/03 01:21:43;;;;;;;73.38;36.85;;;10.90;70.00;;;;;;5036386;28;20037;-67
2020/12/03 01:24:09;;;;;;;74.50;36.60;;;10.90;70.10;;;;;;5036031;28;20033;-67
2020/12/03 01:26:34;;;;;;;71.90;37.00;;;10.90;70.10;;;;;;5025898;28;20028;-66
2020/12/03 01:29:00;;;;;;;77.95;37.63;;;11.00;70.00;;;;;;5058285;28;20094;-66
2020/12/03 01:31:31;;;;;;;79.18;36.50;;;11.00;69.70;;;;;;5035626;28;20148;-67
2020/12/03 01:33:58;;;;;;;71.85;36.47;;;11.00;69.80;;;;;;5053589;28;20037;-68
2020/12/03 01:36:23;;;;;;;75.40;37.47;;;11.10;69.60;;;;;;5053628;28;20103;-67
2020/12/03 01:38:49;;;;;;;77.88;39.10;;;11.10;69.60;;;;;;5055304;28;20108;-66
2020/12/03 01:41:15;;;;;;;75.70;37.00;;;11.10;70.20;;;;;;5039211;28;20171;-67
2020/12/03 01:43:42;;;;;;;73.53;37.13;;;11.00;69.90;;;;;;5032347;28;20505;-67
2020/12/03 01:46:07;;;;;;;76.90;37.28;;;11.00;69.90;;;;;;5045570;28;20041;-67
2020/12/03 01:49:23;;;;;;;71.70;35.83;;;11.00;69.70;;;;;;5049947;28;20078;-67
2020/12/03 01:51:51;;;;;;;73.40;36.65;;;11.10;69.60;;;;;;5036829;28;20484;-68
2020/12/03 01:54:22;;;;;;;77.03;36.75;;;11.10;69.60;;;;;;5055881;28;20029;-66
2020/12/03 01:57:09;;;;;;;70.85;37.58;;;11.00;69.70;;;;;;5017234;28;20170;-67
2020/12/03 01:59:47;;;;;;;65.20;34.05;;;11.00;69.80;;;;;;5052868;28;20025;-68
2020/12/03 02:02:15;;;;;;;71.65;35.50;;;10.90;70.00;;;;;;5053161;28;20029;-66
2020/12/03 02:04:41;;;;;;;71.32;34.65;;;10.90;70.00;;;;;;5052607;28;20029;-68
2020/12/03 02:07:13;;;;;;;65.38;34.80;;;10.90;69.90;;;;;;5033127;28;20021;-66
2020/12/03 02:09:39;;;;;;;70.30;34.20;;;10.80;70.10;;;;;;5033634;28;20062;-67
2020/12/03 02:12:06;;;;;;;69.88;33.13;;;10.80;70.20;;;;;;5053267;28;20044;-67
2020/12/03 02:14:32;;;;;;;72.07;36.10;;;10.90;70.20;;;;;;5053526;28;20033;-67
2020/12/03 02:16:58;;;;;;;67.85;34.67;;;10.90;70.00;;;;;;5052602;28;20029;-67
2020/12/03 02:19:23;;;;;;;59.20;33.03;;;10.90;70.00;;;;;;5052538;28;20378;-67
2020/12/03 02:22:02;;;;;;;61.72;32.45;;;10.80;70.00;;;;;;5052743;28;20504;-67
2020/12/03 02:24:34;;;;;;;62.67;32.95;;;10.90;70.00;;;;;;5034833;28;20056;-66
2020/12/03 02:27:00;;;;;;;59.28;32.15;;;10.80;70.00;;;;;;5052747;28;20457;-67
2020/12/03 02:29:26;;;;;;;59.83;31.95;;;10.80;70.00;;;;;;5044191;28;20477;-67
2020/12/03 02:31:53;;;;;;;56.45;30.48;;;10.80;70.00;;;;;;5018979;28;20584;-67
2020/12/03 02:34:19;;;;;;;61.92;31.13;;;10.80;69.80;;;;;;5052188;28;20032;-68
2020/12/03 02:36:56;;;;;;;60.85;31.73;;;10.70;69.90;;;;;;5033362;28;20108;-66
2020/12/03 02:39:24;;;;;;;58.25;31.15;;;10.70;70.00;;;;;;5052632;28;20376;-66
2020/12/03 02:41:49;;;;;;;58.03;31.95;;;10.70;70.10;;;;;;5052000;28;20029;-66
2020/12/03 02:44:15;;;;;;;54.55;30.50;;;10.70;70.00;;;;;;5052443;28;20396;-66
2020/12/03 02:46:42;;;;;;;62.13;32.17;;;10.70;70.00;;;;;;5035514;28;20531;-67
2020/12/03 02:49:09;;;;;;;62.17;31.38;;;10.70;69.90;;;;;;5052026;28;20116;-67
2020/12/03 02:51:39;;;;;;;57.38;30.35;;;10.60;70.00;;;;;;5052187;28;20172;-66
2020/12/03 02:54:06;;;;;;;51.05;29.83;;;10.70;70.00;;;;;;5052736;28;20036;-67
2020/12/03 02:56:32;;;;;;;56.60;28.17;;;10.80;69.70;;;;;;5051986;28;20048;-67
2020/12/03 02:58:58;;;;;;;50.20;29.27;;;10.80;69.40;;;;;;5051966;28;20061;-67
2020/12/03 03:01:23;;;;;;;50.05;27.05;;;10.70;69.50;;;;;;5052006;28;20032;-66
2020/12/03 03:03:49;;;;;;;52.97;27.73;;;10.70;69.70;;;;;;5062475;28;20052;-66
2020/12/03 03:06:14;;;;;;;55.25;28.40;;;10.70;69.70;;;;;;5071537;28;20063;-67
2020/12/03 03:08:40;;;;;;;50.53;27.65;;;10.60;69.70;;;;;;5071580;28;20449;-67
2020/12/03 03:11:06;;;;;;;53.70;26.88;;;10.60;69.80;;;;;;5071312;28;20223;-67
2020/12/03 03:13:32;;;;;;;52.72;27.00;;;10.50;69.90;;;;;;5071979;28;20163;-67
2020/12/03 03:15:58;;;;;;;52.95;27.75;;;10.60;69.90;;;;;;5071579;28;20067;-67
2020/12/03 03:18:23;;;;;;;51.00;26.15;;;10.60;69.80;;;;;;5071362;28;20041;-66
2020/12/03 03:20:50;;;;;;;53.67;27.65;;;10.70;69.70;;;;;;5079544;28;20077;-67
2020/12/03 03:23:16;;;;;;;57.40;27.88;;;10.70;69.40;;;;;;5070331;28;20037;-67
2020/12/03 03:25:43;;;;;;;46.45;25.65;;;10.70;69.20;;;;;;5070063;28;20033;-67
2020/12/03 03:28:08;;;;;;;45.75;25.27;;;10.70;69.20;;;;;;5085997;28;20166;-67
2020/12/03 03:30:34;;;;;;;50.03;26.33;;;10.80;69.20;;;;;;5071309;28;20111;-68
2020/12/03 03:33:00;;;;;;;47.28;25.98;;;10.80;69.10;;;;;;5071455;28;20040;-67
2020/12/03 03:35:26;;;;;;;46.28;25.40;;;10.70;69.30;;;;;;5070994;28;20407;-66
2020/12/03 03:37:52;;;;;;;48.10;25.88;;;10.60;69.50;;;;;;5075681;28;20392;-67
2020/12/03 03:40:17;;;;;;;47.53;25.83;;;10.50;69.80;;;;;;5087663;28;20028;-67
2020/12/03 03:42:43;;;;;;;46.88;25.50;;;10.50;69.60;;;;;;5080794;28;20064;-66
2020/12/03 03:45:10;;;;;;;47.97;25.50;;;10.60;70.20;;;;;;5083628;28;20043;-67
2020/12/03 03:47:37;;;;;;;50.25;26.50;;;10.50;69.60;;;;;;5075046;28;20111;-66
2020/12/03 03:50:04;;;;;;;51.75;25.90;;;10.50;69.50;;;;;;5071237;28;20090;-67
2020/12/03 03:52:30;;;;;;;50.83;25.63;;;10.50;69.60;;;;;;5069558;28;20028;-70
2020/12/03 03:54:57;;;;;;;51.42;25.45;;;10.60;69.40;;;;;;5064120;28;20031;-67
2020/12/03 03:57:23;;;;;;;49.80;25.77;;;10.60;69.20;;;;;;5070374;28;20642;-67
2020/12/03 03:59:49;;;;;;;53.80;26.23;;;10.60;69.10;;;;;;5051651;28;20028;-67
2020/12/03 04:02:19;;;;;;;49.47;25.40;;;10.60;69.00;;;;;;5065745;28;20063;-67
2020/12/03 04:04:46;;;;;;;48.63;25.95;;;10.60;69.00;;;;;;5032903;28;20571;-66
2020/12/03 04:07:12;;;;;;;50.15;25.13;;;10.60;69.00;;;;;;5032867;28;20033;-67
2020/12/03 04:09:37;;;;;;;50.92;24.13;;;10.60;69.30;;;;;;5032710;28;20112;-67
2020/12/03 04:12:03;;;;;;;48.03;24.90;;;10.60;69.20;;;;;;5050977;28;20544;-67
2020/12/03 04:14:29;;;;;;;52.80;24.67;;;10.60;69.20;;;;;;5050184;28;20037;-67
2020/12/03 04:16:54;;;;;;;44.05;24.90;;;10.60;69.30;;;;;;5016151;28;20056;-68
2020/12/03 04:19:20;;;;;;;46.67;24.85;;;10.70;69.00;;;;;;5051224;28;20037;-66
2020/12/03 04:21:46;;;;;;;56.92;26.58;;;10.80;68.80;;;;;;5050455;28;20083;-67
2020/12/03 04:24:11;;;;;;;54.15;26.38;;;10.80;68.50;;;;;;5051005;28;20445;-66
2020/12/03 04:26:37;;;;;;;46.78;25.45;;;10.80;68.50;;;;;;5050497;28;20037;-67
2020/12/03 04:29:03;;;;;;;46.60;24.90;;;10.80;68.40;;;;;;5032845;28;20043;-67
2020/12/03 04:31:28;;;;;;;53.50;25.98;;;10.80;68.40;;;;;;5036921;28;20039;-67
2020/12/03 04:33:54;;;;;;;54.60;26.17;;;10.90;68.30;;;;;;5029939;28;20052;-69
2020/12/03 04:36:19;;;;;;;46.70;26.42;;;10.90;68.30;;;;;;5053859;28;20029;-68
2020/12/03 04:38:45;;;;;;;44.25;24.83;;;10.80;68.50;;;;;;5037350;28;20385;-66
2020/12/03 04:41:11;;;;;;;52.72;26.38;;;10.70;68.80;;;;;;5065484;28;20484;-67
2020/12/03 04:43:42;;;;;;;50.38;26.08;;;10.70;68.90;;;;;;5024953;28;20135;-67
2020/12/03 04:46:39;;;;;;;50.83;26.50;;;10.70;68.90;;;;;;5056822;28;20040;-67
2020/12/03 04:49:40;;;;;;;48.83;26.08;;;10.60;69.10;;;;;;5037492;28;20029;-67
2020/12/03 04:52:37;;;;;;;53.13;26.30;;;10.50;69.50;;;;;;5071439;28;20059;-67
2020/12/03 04:55:21;;;;;;;45.92;25.85;;;10.50;69.60;;;;;;5067765;28;20105;-67
2020/12/03 04:57:58;;;;;;;52.65;27.60;;;10.50;69.50;;;;;;5054174;28;20028;-66
2020/12/03 05:00:47;;;;;;;48.35;26.38;;;10.60;69.40;;;;;;5071319;28;20135;-67
2020/12/03 05:03:26;;;;;;;48.08;26.73;;;10.60;69.40;;;;;;5067671;28;20847;-66
2020/12/03 05:06:10;;;;;;;47.42;25.80;;;10.60;69.30;;;;;;5093051;28;20472;-67
2020/12/03 05:08:47;;;;;;;43.78;25.58;;;10.70;69.30;;;;;;5089752;28;20032;-67
2020/12/03 05:11:25;;;;;;;46.92;25.13;;;10.70;69.30;;;;;;5089627;28;20069;-67
2020/12/03 05:13:59;;;;;;;43.92;24.08;;;10.70;69.30;;;;;;5088532;28;20472;-67
2020/12/03 05:16:43;;;;;;;47.05;26.30;;;10.70;69.30;;;;;;5091027;28;20444;-68
2020/12/03 05:19:39;;;;;;;46.40;24.65;;;10.60;69.50;;;;;;5090872;28;20048;-66
2020/12/03 05:22:20;;;;;;;42.63;24.60;;;10.60;69.50;;;;;;5093686;28;20039;-67
2020/12/03 05:24:47;;;;;;;55.28;26.58;;;10.60;69.40;;;;;;5091866;28;20054;-66
2020/12/03 05:27:28;;;;;;;43.90;24.48;;;10.60;69.60;;;;;;5092177;28;20047;-67
2020/12/03 05:29:55;;;;;;;44.47;25.73;;;10.70;69.40;;;;;;5088579;28;20055;-68
2020/12/03 05:32:21;;;;;;;43.28;24.88;;;10.60;69.40;;;;;;5093679;28;20043;-68
2020/12/03 05:34:47;;;;;;;45.35;25.42;;;10.60;69.60;;;;;;5091017;28;20039;-67
2020/12/03 05:37:15;;;;;;;49.00;25.88;;;10.70;69.60;;;;;;5091870;28;20476;-66
2020/12/03 05:39:49;;;;;;;50.58;26.10;;;10.70;69.30;;;;;;5091662;28;20028;-67
2020/12/03 05:42:41;;;;;;;47.17;24.92;;;10.70;69.40;;;;;;5094103;28;20059;-67
2020/12/03 05:45:15;;;;;;;50.30;24.70;;;10.70;69.50;;;;;;5081633;28;20545;-68
2020/12/03 05:47:45;;;;;;;53.70;25.90;;;10.70;69.40;;;;;;5094418;28;20019;-67
2020/12/03 05:50:17;;;;;;;50.22;26.48;;;10.60;69.60;;;;;;5088950;28;20419;-68
2020/12/03 05:53:02;;;;;;;50.72;26.30;;;10.60;69.70;;;;;;5084080;28;20181;-68
2020/12/03 05:55:30;;;;;;;50.72;26.23;;;10.60;69.80;;;;;;5072748;28;20102;-66
2020/12/03 05:58:30;;;;;;;45.22;25.45;;;10.60;69.90;;;;;;5081682;28;20056;-67
2020/12/03 06:01:07;;;;;;;46.00;25.42;;;10.60;70.00;;;;;;5072615;28;20048;-67
2020/12/03 06:03:49;;;;;;;47.13;25.63;;;10.60;70.00;;;;;;5067035;28;20481;-67
2020/12/03 06:06:37;;;;;;;43.80;24.77;;;10.60;70.00;;;;;;5056860;28;20412;-67
2020/12/03 06:09:17;;;;;;;42.90;24.88;;;10.60;69.90;;;;;;5045660;28;20029;-67
2020/12/03 06:11:54;;;;;;;52.50;25.13;;;10.60;70.10;;;;;;5060314;28;20037;-67
2020/12/03 06:14:51;;;;;;;42.60;24.05;;;10.70;70.00;;;;;;5053218;28;20032;-67
2020/12/03 06:17:24;;;;;;;41.58;22.77;;;10.70;69.80;;;;;;5053149;28;20171;-68
2020/12/03 06:19:50;;;;;;;40.28;23.48;;;10.60;70.00;;;;;;5068645;28;20025;-66
2020/12/03 06:22:33;;;;;;;44.17;24.15;;;10.60;70.30;;;;;;5065433;28;20044;-66
2020/12/03 06:25:15;;;;;;;40.40;23.58;;;10.60;70.50;;;;;;5065863;28;20025;-68
2020/12/03 06:28:07;;;;;;;36.35;22.20;;;10.70;70.40;;;;;;5040641;28;20108;-65
2020/12/03 06:31:11;;;;;;;34.78;20.75;;;10.70;70.20;;;;;;5066638;28;20062;-66
2020/12/03 06:33:43;;;;;;;34.55;21.20;;;10.70;70.20;;;;;;5042683;28;20040;-66
2020/12/03 06:36:15;;;;;;;33.58;21.00;;;10.70;70.10;;;;;;5058397;28;20460;-65
2020/12/03 06:39:19;;;;;;;35.45;21.25;;;10.70;70.20;;;;;;5057939;28;20120;-68
2020/12/03 06:41:53;;;;;;;32.00;19.85;;;10.90;70.00;;;;;;5042096;28;20048;-65
2020/12/03 06:44:34;;;;;;;35.45;22.02;;;10.90;69.80;;;;;;5060606;28;20048;-66
2020/12/03 06:47:03;;;;;;;33.20;20.83;;;10.80;69.90;;;;;;5071520;28;20510;-66
2020/12/03 06:49:47;;;;;;;35.47;22.05;;;10.80;70.20;;;;;;5072140;28;20021;-66
2020/12/03 06:52:30;;;;;;;31.77;21.38;;;10.80;70.40;;;;;;5054436;28;20488;-66
2020/12/03 06:55:11;;;;;;;;;;;10.80;70.40;;;;;;5072600;28;20020;-66
2020/12/03 06:58:02;;;;;;;32.88;20.35;;;10.70;70.50;;;;;;5066447;28;19920;-66
2020/12/03 07:00:42;;;;;;;30.70;20.80;;;10.70;70.60;;;;;;5054466;28;20496;-66
2020/12/03 07:03:32;;;;;;;31.63;20.00;;;10.60;70.80;;;;;;5052086;28;20048;-66
2020/12/03 07:06:10;;;;;;;29.75;19.38;;;10.60;70.90;;;;;;5051828;28;20039;-67
2020/12/03 07:09:04;;;;;;;28.85;19.77;;;10.60;71.10;;;;;;5052006;28;20021;-68
2020/12/03 07:11:53;;;;;;;29.63;19.17;;;10.60;70.90;;;;;;5047431;28;20436;-65
2020/12/03 07:14:46;;;;;;;30.52;20.10;;;10.60;71.00;;;;;;5082840;28;20555;-66
2020/12/03 07:17:11;;;;;;;31.00;19.02;;;10.60;71.10;;;;;;5069643;28;20028;-64
2020/12/03 07:20:05;;;;;;;27.90;18.05;;;10.50;71.20;;;;;;5051713;28;20032;-65
2020/12/03 07:22:38;;;;;;;28.90;17.80;;;10.50;71.30;;;;;;5051999;28;20037;-66
2020/12/03 07:25:04;;;;;;;28.00;17.70;;;10.40;71.50;;;;;;5034103;28;20029;-65
2020/12/03 07:28:02;;;;;;;31.58;19.10;;;10.40;71.70;;;;;;5054056;28;20064;-65
2020/12/03 07:30:36;;;;;;;32.83;18.75;;;10.40;71.70;;;;;;5043618;28;20035;-66
2020/12/03 07:33:28;;;;;;;32.92;20.20;;;10.40;71.70;;;;;;5053180;28;20048;-65
2020/12/03 07:36:09;;;;;;;31.27;19.42;;;10.50;71.50;;;;;;5037471;28;20786;-66
2020/12/03 07:38:38;;;;;;;34.70;20.30;;;10.50;71.40;;;;;;5050844;28;20021;-66
2020/12/03 07:41:05;;;;;;;36.35;20.98;;;10.50;71.40;;;;;;5071141;28;20039;-66
2020/12/03 07:43:38;;;;;;;40.67;23.58;;;10.50;71.50;;;;;;5070901;28;20037;-65
2020/12/03 07:46:30;;;;;;;41.30;23.33;;;10.50;71.60;;;;;;5071481;28;20111;-68
2020/12/03 07:48:57;;;;;;;38.65;22.27;;;10.40;71.70;;;;;;5048407;28;20502;-64
2020/12/03 07:51:23;;;;;;;45.70;23.77;;;10.40;71.70;;;;;;5063520;28;20028;-65
2020/12/03 07:54:17;;;;;;;42.30;24.38;;;10.40;71.70;;;;;;5050060;28;20491;-65
2020/12/03 07:56:47;;;;;;;45.78;24.85;;;10.40;71.70;;;;;;5052625;28;20029;-64
2020/12/03 07:59:27;;;;;;;43.05;23.00;;;10.40;71.80;;;;;;5033967;28;20021;-67
2020/12/03 08:01:55;;;;;;;48.55;25.63;;;10.50;71.60;;;;;;5056511;28;20028;-65
2020/12/03 08:04:33;;;;;;;45.92;23.80;;;10.50;71.60;;;;;;5070616;28;20052;-66
2020/12/03 08:07:04;;;;;;;39.58;24.05;;;10.50;71.50;;;;;;5090495;28;20077;-66
2020/12/03 08:09:46;;;;;;;45.25;24.30;;;10.50;71.50;;;;;;5077950;28;20025;-66
2020/12/03 08:12:15;;;;;;;49.30;25.30;;;10.50;71.60;;;;;;5087438;28;20395;-66
2020/12/03 08:14:42;;;;;;;39.42;23.23;;;10.40;71.80;;;;;;5090008;28;20062;-67
2020/12/03 08:17:17;;;;;;;44.15;23.35;;;10.40;71.70;;;;;;5087975;28;20429;-66
2020/12/03 08:19:47;;;;;;;45.80;23.52;;;10.40;71.70;;;;;;5091230;28;20024;-66
2020/12/03 08:22:34;;;;;;;47.45;23.85;;;10.40;71.80;;;;;;5090362;28;20043;-66
2020/12/03 08:25:11;;;;;;;40.97;21.95;;;10.40;71.90;;;;;;5082419;28;20039;-66
2020/12/03 08:27:37;;;;;;;37.50;23.05;;;10.30;72.00;;;;;;5068560;28;20035;-66
2020/12/03 08:30:21;;;;;;;39.58;22.10;;;10.30;72.10;;;;;;5075028;28;20032;-66
2020/12/03 08:33:14;;;;;;;38.42;21.02;;;10.30;72.00;;;;;;5088006;28;20035;-65
2020/12/03 08:35:41;;;;;;;36.22;22.13;;;10.30;71.90;;;;;;5079396;28;20039;-65
2020/12/03 08:38:07;;;;;;;38.47;22.70;;;10.30;72.10;;;;;;5087772;28;20024;-67
2020/12/03 08:40:36;;;;;;;37.03;20.60;;;10.30;72.10;;;;;;5094193;28;20496;-67
2020/12/03 08:43:04;;;;;;;40.08;22.10;;;10.30;71.90;;;;;;5090398;28;20070;-69
2020/12/03 08:45:34;;;;;;;41.72;21.52;;;10.30;71.90;;;;;;5084670;28;20036;-66
2020/12/03 08:48:01;;;;;;;41.92;21.23;;;10.40;71.80;;;;;;5070789;28;20487;-65
2020/12/03 08:50:26;;;;;;;47.58;22.70;;;10.40;72.40;;;;;;5070178;28;20033;-65
2020/12/03 08:52:54;;;;;;;40.88;22.83;;;10.40;71.70;;;;;;5084934;28;20039;-67
2020/12/03 08:55:19;;;;;;;42.20;21.67;;;10.50;71.50;;;;;;5083010;28;20298;-66
2020/12/03 08:57:46;;;;;;;42.13;22.55;;;10.50;71.60;;;;;;5087769;28;20472;-66
2020/12/03 09:00:17;;;;;;;41.15;23.02;;;10.50;71.40;;;;;;5070623;28;20033;-65
2020/12/03 09:02:44;;;;;;;47.45;23.73;;;10.50;71.30;;;;;;5080821;28;20061;-67
2020/12/03 09:05:12;;;;;;;39.92;22.98;;;10.50;71.30;;;;;;5067873;28;20032;-66
2020/12/03 09:07:44;;;;;;;41.70;21.48;;;10.50;71.30;;;;;;5069243;28;20021;-67
2020/12/03 09:10:11;;;;;;;40.55;20.45;;;10.50;71.10;;;;;;5065265;28;20029;-66
2020/12/03 09:12:39;;;;;;;41.97;21.77;;;10.40;71.30;;;;;;5068633;28;20036;-66
2020/12/03 09:15:08;;;;;;;33.33;19.33;;;10.40;71.50;;;;;;5066808;28;20020;-66
2020/12/03 09:17:39;;;;;;;36.10;19.70;;;10.40;71.50;;;;;;5050703;28;20086;-65
2020/12/03 09:20:07;;;;;;;34.55;19.00;;;10.30;71.50;;;;;;5062007;28;20025;-65
2020/12/03 09:22:35;;;;;;;34.35;19.13;;;10.40;71.50;;;;;;5068059;28;20033;-65
2020/12/03 09:25:04;;;;;;;36.80;19.30;;;10.30;71.60;;;;;;5069815;28;20476;-65
2020/12/03 09:27:33;;;;;;;37.42;20.35;;;10.30;71.50;;;;;;5073074;28;20028;-66
2020/12/03 09:30:03;;;;;;;36.50;18.92;;;10.40;71.40;;;;;;5069286;28;20503;-66
2020/12/03 09:32:30;;;;;;;40.08;20.55;;;10.30;71.40;;;;;;5038252;28;20119;-65
2020/12/03 09:34:56;;;;;;;36.35;19.58;;;10.40;71.40;;;;;;5070848;28;20032;-65
2020/12/03 09:37:22;;;;;;;34.22;20.27;;;10.40;71.30;;;;;;5065660;28;20484;-65
2020/12/03 09:39:49;;;;;;;35.90;20.02;;;10.30;71.30;;;;;;5066063;28;20020;-64
2020/12/03 09:42:16;;;;;;;34.33;19.52;;;10.30;71.40;;;;;;5070316;28;20476;-67
2020/12/03 09:44:49;;;;;;;33.28;19.40;;;10.30;71.40;;;;;;5068693;28;20032;-65
2020/12/03 09:47:18;;;;;;;41.72;21.17;;;10.40;71.30;;;;;;5067863;28;20028;-66
2020/12/03 09:49:45;;;;;;;34.15;20.20;;;10.40;71.40;;;;;;5070691;28;20036;-65
2020/12/03 09:52:12;;;;;;;38.70;20.90;;;10.40;71.80;;;;;;5071853;28;20028;-66
2020/12/03 09:54:39;;;;;;;36.05;20.75;;;10.50;71.10;;;;;;5071696;28;20021;-65
2020/12/03 09:57:10;;;;;;;37.95;22.13;;;10.40;71.10;;;;;;5072480;28;20028;-66
2020/12/03 09:59:37;;;;;;;41.22;22.85;;;10.50;71.20;;;;;;5072287;28;20063;-66
2020/12/03 10:02:32;;;;;;;41.47;22.20;;;10.40;71.10;;;;;;5072248;28;20131;-65
2020/12/03 10:05:28;;;;;;;41.67;22.55;;;10.40;71.30;;;;;;5072091;28;20107;-65
2020/12/03 10:08:00;;;;;;;45.03;22.23;;;10.30;71.40;;;;;;5072999;28;20025;-66
2020/12/03 10:10:44;;;;;;;40.25;22.73;;;10.30;71.70;;;;;;5073515;28;20024;-65
2020/12/03 10:13:30;;;;;;;40.28;22.67;;;10.20;71.80;;;;;;5055542;28;20029;-65
2020/12/03 10:16:05;;;;;;;42.33;21.50;;;10.20;71.90;;;;;;5072927;28;20376;-66
2020/12/03 10:18:44;;;;;;;38.38;22.42;;;10.20;71.90;;;;;;5072710;28;20060;-65
2020/12/03 10:21:14;;;;;;;38.35;21.20;;;10.20;71.80;;;;;;5073233;28;20020;-65
2020/12/03 10:23:50;;;;;;;34.22;21.23;;;10.20;71.80;;;;;;5055112;28;20040;-66
2020/12/03 10:27:00;;;;;;;42.10;23.30;;;10.30;71.80;;;;;;5055128;28;20032;-66
2020/12/03 10:29:32;;;;;;;41.70;22.50;;;10.30;71.80;;;;;;5072753;28;20124;-66
2020/12/03 10:32:08;;;;;;;37.13;20.77;;;10.30;71.70;;;;;;5053872;28;20379;-66
2020/12/03 10:34:39;;;;;;;40.35;21.60;;;10.30;71.60;;;;;;5073330;28;20029;-65
2020/12/03 10:37:16;;;;;;;38.03;21.10;;;10.30;71.60;;;;;;5054923;28;20033;-65
2020/12/03 10:40:04;;;;;;;38.03;19.42;;;10.40;71.50;;;;;;5054637;28;20024;-65
2020/12/03 10:42:59;;;;;;;37.75;21.40;;;10.40;71.30;;;;;;5072734;28;20025;-66
2020/12/03 10:45:32;;;;;;;35.45;20.30;;;10.30;71.40;;;;;;5046821;28;20508;-66
2020/12/03 10:48:17;;;;;;;35.42;19.88;;;10.20;71.60;;;;;;5052535;28;20027;-65
2020/12/03 10:50:53;;;;;;;35.42;20.55;;;10.30;71.60;;;;;;5052729;28;20025;-65
2020/12/03 10:53:25;;;;;;;38.30;20.48;;;10.30;71.50;;;;;;5052596;28;20117;-65
2020/12/03 10:56:12;;;;;;;39.90;20.98;;;10.30;71.70;;;;;;5052570;28;20052;-65
2020/12/03 10:59:29;;;;;;;40.75;20.77;;;10.30;71.60;;;;;;5052391;28;20070;-65
2020/12/03 11:01:57;;;;;;;36.92;21.42;;;10.30;71.50;;;;;;5052493;28;20091;-66
2020/12/03 11:04:24;;;;;;;39.22;21.92;;;10.30;71.40;;;;;;5052583;28;20068;-65
2020/12/03 11:06:50;;;;;;;38.13;21.77;;;10.30;71.50;;;;;;5051037;28;20021;-65
2020/12/03 11:09:19;;;;;;;45.08;24.23;;;10.40;71.40;;;;;;5052282;28;20040;-65
2020/12/03 11:11:47;;;;;;;43.90;23.77;;;10.40;71.20;;;;;;5052344;28;20029;-65
2020/12/03 11:14:14;;;;;;;40.95;22.90;;;10.50;71.20;;;;;;5052303;28;20472;-65
2020/12/03 11:16:54;;;;;;;41.25;22.70;;;10.50;71.20;;;;;;5052199;28;20021;-65
2020/12/03 11:19:23;;;;;;;42.70;23.58;;;10.40;71.30;;;;;;5050858;28;20024;-65
2020/12/03 11:22:44;;;;;;;45.78;23.10;;;10.50;71.30;;;;;;5052006;28;20029;-65
2020/12/03 11:25:15;;;;;;;39.67;22.73;;;10.50;71.20;;;;;;4976082;28;20138;-65
2020/12/03 11:27:42;;;;;;;43.38;22.60;;;10.50;71.10;;;;;;5033362;28;20040;-66
2020/12/03 11:30:26;;;;;;;44.30;23.50;;;10.50;71.10;;;;;;5052068;28;20024;-66
2020/12/03 11:32:54;;;;;;;38.63;22.33;;;10.50;70.90;;;;;;5052000;28;20029;-65
2020/12/03 11:35:31;;;;;;;37.78;22.05;;;10.50;71.60;;;;;;5050392;28;20766;-64
2020/12/03 11:38:00;;;;;;;41.22;22.45;;;10.50;70.90;;;;;;5051745;28;20100;-66
2020/12/03 11:40:41;;;;;;;38.63;22.23;;;10.50;71.10;;;;;;5068024;28;20028;-66
2020/12/03 11:43:38;;;;;;;39.38;22.83;;;10.50;71.00;;;;;;5091152;28;20499;-65
2020/12/03 11:48:56;;;;;;;37.05;21.90;;;10.60;70.80;;;;;;5060476;28;20116;-65
2020/12/03 11:51:40;;;;;;;40.90;22.00;;;10.50;70.90;;;;;;5034510;28;20143;-66
2020/12/03 11:54:09;;;;;;;33.58;20.70;;;10.60;70.80;;;;;;5061036;28;20032;-65
2020/12/03 11:56:36;;;;;;;40.72;22.42;;;10.60;70.60;;;;;;5051080;28;20147;-70
2020/12/03 11:59:17;;;;;;;41.40;22.52;;;10.70;70.60;;;;;;5061971;28;20032;-65
2020/12/03 12:02:10;;;;;;;35.85;22.30;;;10.70;70.30;;;;;;5063806;28;20062;-64
2020/12/03 12:04:47;;;;;;;;;;;10.80;70.30;;;;;;5062086;28;20060;-65
2020/12/03 12:07:28;;;;;;;35.10;20.55;;;10.70;70.40;;;;;;5050346;28;19916;-66
2020/12/03 12:10:14;;;;;;;34.38;21.15;;;10.70;70.10;;;;;;5059331;28;20021;-66
2020/12/03 12:12:40;;;;;;;30.48;20.02;;;10.70;70.20;;;;;;5043178;28;20028;-66
2020/12/03 12:15:06;;;;;;;32.03;20.45;;;10.70;70.00;;;;;;5058553;28;20033;-66
2020/12/03 12:17:35;;;;;;;28.65;16.85;;;10.80;70.10;;;;;;5043182;28;20083;-67
2020/12/03 12:20:04;;;;;;;32.58;19.88;;;10.70;70.10;;;;;;5047311;28;20082;-67
2020/12/03 12:22:30;;;;;;;31.27;19.38;;;10.70;70.00;;;;;;5064102;28;20469;-66
2020/12/03 12:24:56;;;;;;;33.30;19.17;;;10.80;69.90;;;;;;5047117;28;20037;-66
2020/12/03 12:27:21;;;;;;;37.13;18.52;;;10.80;69.90;;;;;;5047056;28;20041;-64
2020/12/03 12:29:47;;;;;;;31.20;18.23;;;10.80;69.90;;;;;;5048404;28;20028;-65
2020/12/03 12:32:12;;;;;;;28.27;17.25;;;10.80;69.90;;;;;;5065695;28;20082;-66
2020/12/03 12:34:43;;;;;;;27.23;17.08;;;10.70;69.80;;;;;;5045139;28;20510;-65
2020/12/03 12:37:09;;;;;;;25.05;17.02;;;10.80;69.70;;;;;;5061911;28;20091;-67
2020/12/03 12:39:35;;;;;;;25.02;15.70;;;10.80;69.60;;;;;;5064086;28;20139;-66
2020/12/03 12:42:06;;;;;;;27.13;15.43;;;10.80;69.40;;;;;;5032365;28;20051;-66
2020/12/03 12:44:32;;;;;;;28.25;16.63;;;10.80;69.30;;;;;;5057226;28;20071;-66
2020/12/03 12:47:02;;;;;;;24.00;15.85;;;10.80;69.40;;;;;;5044139;28;20021;-65
2020/12/03 12:49:28;;;;;;;24.38;15.93;;;10.80;69.30;;;;;;5043717;28;20361;-65
2020/12/03 12:51:55;;;;;;;22.83;16.25;;;10.70;69.40;;;;;;5061446;28;20024;-65
2020/12/03 12:54:23;;;;;;;21.42;14.80;;;10.60;69.70;;;;;;5051189;28;20029;-65
2020/12/03 12:56:50;;;;;;;25.55;15.50;;;10.60;69.80;;;;;;5054853;28;20036;-66
2020/12/03 12:59:16;;;;;;;24.35;15.65;;;10.60;69.80;;;;;;5063752;28;20036;-66